Corbin Foss — WDB5265 — position and weather

sailwx.info

Track history (hours):
 
Tides and Currents Weather Stations Pressure Air Temp Water Temp Dewpoint Dewpoint Depression Visibility Wind Speed Wind Dir Waves Ship Positions

Corbin Foss

Owner: Foss International, Inc, Seattle, WA. More information available from US FCC via Universal Licensing System and Coast Guard Vessel Documentation Center.

Last reported at 2015-Jun-06 05:33 UTC. Time now 2015-Jul-02 08:04 UTC.
Position N 58°17' W 136°16'.
Warning: this ship's position is 26 days out of date.

Type: Tow > 200 m length. MMSI: 366902220.

Date/timePositionNaut miles runAvg speedWind from/ knotsBaromVisibWave heightAir tempDewpointWater temp
2015-Jun-06 05:33N 58°17' W 136°16'7 6.7
2015-Jun-06 04:33N 58°15' W 136°04'7 6.7
2015-Jun-06 03:33N 58°18' W 135°53'5 5.5
2015-Jun-06 02:33N 58°17' W 135°42'8 5.7
2015-Jun-06 01:12N 58°14' W 135°29'  
2015-Jun-01 01:22N 52°19' W 128°47'5 6.4
2015-Jun-01 00:34N 52°14' W 128°43'7 7.0
2015-May-31 23:33N 52°15' W 128°32'7 7.0
2015-May-31 22:33N 52°15' W 128°21'7 6.9
2015-May-31 21:33N 52°14' W 128°09'5 5.3
2015-May-31 20:33N 52°08' W 128°08'59 6.2
2015-May-31 11:04N 51°11' W 127°51'4 6.9
2015-May-31 10:33N 51°08' W 127°48'7 7.2
2015-May-31 09:32N 51°03' W 127°39'7 7.0
2015-May-31 08:33N 50°58' W 127°31'7 6.9
2015-May-31 07:33N 50°54' W 127°23'7 6.8
2015-May-31 06:33N 50°51' W 127°13'7 6.6
2015-May-31 05:31N 50°47' W 127°04'6 6.4
2015-May-31 04:32N 50°43' W 126°57'6 5.9
2015-May-31 03:31N 50°39' W 126°49'7 7.3
2015-May-31 02:33N 50°34' W 126°41'97 5.4
2015-May-30 08:28N 49°41' W 124°36'7 5.5
2015-May-30 07:14N 49°36' W 124°27'6 5.9
2015-May-30 06:11N 49°33' W 124°19'4 6.1
2015-May-30 05:32N 49°31' W 124°14'7 6.1
2015-May-30 04:21N 49°27' W 124°05'6 6.3
2015-May-30 03:22N 49°23' W 123°58'5 6.4
2015-May-30 02:33N 49°20' W 123°51'7 6.7
2015-May-30 01:33N 49°16' W 123°43'7 6.6
2015-May-30 00:33N 49°12' W 123°35'7 6.6
2015-May-29 23:33N 49°08' W 123°28'7 6.6
2015-May-29 22:33N 49°03' W 123°20'8 7.6
2015-May-29 21:33N 48°59' W 123°11'7 7.3
2015-May-29 20:33N 48°54' W 123°03'7 6.9
2015-May-29 19:33N 48°49' W 122°55'7 7.0
2015-May-29 18:32N 48°45' W 122°46'6 6.6
2015-May-29 17:33N 48°40' W 122°40'5 4.8
2015-May-29 16:33N 48°40' W 122°33'5 4.6
2015-May-29 15:32N 48°44' W 122°30'0 0.2
2015-May-29 14:33N 48°45' W 122°30'1 0.1
2015-May-29 10:07N 48°45' W 122°30'0 0.0
2015-May-29 09:10N 48°45' W 122°30'0 0.0
2015-May-29 08:22N 48°45' W 122°30'0 0.0
2015-May-29 07:28N 48°45' W 122°30'0 0.0
2015-May-29 06:25N 48°45' W 122°30'0 0.0
2015-May-29 04:19N 48°45' W 122°30'0 0.0
2015-May-29 01:31N 48°45' W 122°30'0 0.0
2015-May-28 15:07N 48°45' W 122°30'0 0.0
2015-May-28 14:13N 48°45' W 122°30'0 0.0
2015-May-28 13:19N 48°45' W 122°30'0 0.0
2015-May-28 12:31N 48°45' W 122°30'0 0.0
2015-May-27 16:07N 48°45' W 122°30'  
Track history (hours):
 
Tides and Currents Weather Stations Pressure Air Temp Water Temp Dewpoint Dewpoint Depression Visibility Wind Speed Wind Dir Waves Ship Positions

Corbin Foss

Owner: Foss International, Inc, Seattle, WA. More information available from US FCC via Universal Licensing System and Coast Guard Vessel Documentation Center.

Last reported at 2015-Jun-06 05:33 UTC. Time now 2015-Jul-02 08:04 UTC.
Position N 58°17' W 136°16'.
Warning: this ship's position is 26 days out of date.

Type: Tow > 200 m length. MMSI: 366902220.

Date/timePositionNaut miles runAvg speedWind from/ knotsBaromVisibWave heightAir tempDewpointWater temp
2015-Jun-06 05:33N 58°17' W 136°16'7 6.7
2015-Jun-06 04:33N 58°15' W 136°04'7 6.7
2015-Jun-06 03:33N 58°18' W 135°53'5 5.5
2015-Jun-06 02:33N 58°17' W 135°42'8 5.7
2015-Jun-06 01:12N 58°14' W 135°29'  
2015-Jun-01 01:22N 52°19' W 128°47'5 6.4
2015-Jun-01 00:34N 52°14' W 128°43'7 7.0
2015-May-31 23:33N 52°15' W 128°32'7 7.0
2015-May-31 22:33N 52°15' W 128°21'7 6.9
2015-May-31 21:33N 52°14' W 128°09'5 5.3
2015-May-31 20:33N 52°08' W 128°08'59 6.2
2015-May-31 11:04N 51°11' W 127°51'4 6.9
2015-May-31 10:33N 51°08' W 127°48'7 7.2
2015-May-31 09:32N 51°03' W 127°39'7 7.0
2015-May-31 08:33N 50°58' W 127°31'7 6.9
2015-May-31 07:33N 50°54' W 127°23'7 6.8
2015-May-31 06:33N 50°51' W 127°13'7 6.6
2015-May-31 05:31N 50°47' W 127°04'6 6.4
2015-May-31 04:32N 50°43' W 126°57'6 5.9
2015-May-31 03:31N 50°39' W 126°49'7 7.3
2015-May-31 02:33N 50°34' W 126°41'97 5.4
2015-May-30 08:28N 49°41' W 124°36'7 5.5
2015-May-30 07:14N 49°36' W 124°27'6 5.9
2015-May-30 06:11N 49°33' W 124°19'4 6.1
2015-May-30 05:32N 49°31' W 124°14'7 6.1
2015-May-30 04:21N 49°27' W 124°05'6 6.3
2015-May-30 03:22N 49°23' W 123°58'5 6.4
2015-May-30 02:33N 49°20' W 123°51'7 6.7
2015-May-30 01:33N 49°16' W 123°43'7 6.6
2015-May-30 00:33N 49°12' W 123°35'7 6.6
2015-May-29 23:33N 49°08' W 123°28'7 6.6
2015-May-29 22:33N 49°03' W 123°20'8 7.6
2015-May-29 21:33N 48°59' W 123°11'7 7.3
2015-May-29 20:33N 48°54' W 123°03'7 6.9
2015-May-29 19:33N 48°49' W 122°55'7 7.0
2015-May-29 18:32N 48°45' W 122°46'6 6.6
2015-May-29 17:33N 48°40' W 122°40'5 4.8
2015-May-29 16:33N 48°40' W 122°33'5 4.6
2015-May-29 15:32N 48°44' W 122°30'0 0.2
2015-May-29 14:33N 48°45' W 122°30'1 0.1
2015-May-29 10:07N 48°45' W 122°30'0 0.0
2015-May-29 09:10N 48°45' W 122°30'0 0.0
2015-May-29 08:22N 48°45' W 122°30'0 0.0
2015-May-29 07:28N 48°45' W 122°30'0 0.0
2015-May-29 06:25N 48°45' W 122°30'0 0.0
2015-May-29 04:19N 48°45' W 122°30'0 0.0
2015-May-29 01:31N 48°45' W 122°30'0 0.0
2015-May-28 15:07N 48°45' W 122°30'0 0.0
2015-May-28 14:13N 48°45' W 122°30'0 0.0
2015-May-28 13:19N 48°45' W 122°30'0 0.0
2015-May-28 12:31N 48°45' W 122°30'0 0.0
2015-May-27 16:07N 48°45' W 122°30'  

Dump ship's entire track history